sensor_id;sensor_type;location;lat;lon;timestamp;temperature;humidity
37340;DHT22;23223;51.006;7.610;2024-03-17T00:00:42;3.90;99.90
37340;DHT22;23223;51.006;7.610;2024-03-17T00:03:08;3.90;99.90
37340;DHT22;23223;51.006;7.610;2024-03-17T00:05:37;3.80;99.90
37340;DHT22;23223;51.006;7.610;2024-03-17T00:08:04;3.80;99.90
37340;DHT22;23223;51.006;7.610;2024-03-17T00:10:34;4.00;99.90
37340;DHT22;23223;51.006;7.610;2024-03-17T00:13:00;4.40;99.90
37340;DHT22;23223;51.006;7.610;2024-03-17T00:15:26;4.60;99.90
37340;DHT22;23223;51.006;7.610;2024-03-17T00:17:52;4.60;99.90
37340;DHT22;23223;51.006;7.610;2024-03-17T00:20:18;4.40;99.90
37340;DHT22;23223;51.006;7.610;2024-03-17T00:22:47;4.20;99.90
37340;DHT22;23223;51.006;7.610;2024-03-17T00:25:13;4.00;99.90
37340;DHT22;23223;51.006;7.610;2024-03-17T00:27:39;3.90;99.90
37340;DHT22;23223;51.006;7.610;2024-03-17T00:30:08;3.80;99.90
37340;DHT22;23223;51.006;7.610;2024-03-17T00:32:41;3.70;99.90
37340;DHT22;23223;51.006;7.610;2024-03-17T00:35:08;3.50;99.90
37340;DHT22;23223;51.006;7.610;2024-03-17T00:37:35;3.40;99.90
37340;DHT22;23223;51.006;7.610;2024-03-17T00:40:02;3.30;99.90
37340;DHT22;23223;51.006;7.610;2024-03-17T00:42:27;3.20;99.90
37340;DHT22;23223;51.006;7.610;2024-03-17T00:44:53;3.20;99.90
37340;DHT22;23223;51.006;7.610;2024-03-17T00:47:19;3.20;99.90
37340;DHT22;23223;51.006;7.610;2024-03-17T00:49:44;3.20;99.90
37340;DHT22;23223;51.006;7.610;2024-03-17T00:52:10;3.10;99.90
37340;DHT22;23223;51.006;7.610;2024-03-17T00:54:35;3.10;99.90
37340;DHT22;23223;51.006;7.610;2024-03-17T00:57:01;3.10;99.90
37340;DHT22;23223;51.006;7.610;2024-03-17T00:59:27;3.00;99.90
37340;DHT22;23223;51.006;7.610;2024-03-17T01:01:53;3.00;99.90
37340;DHT22;23223;51.006;7.610;2024-03-17T01:04:18;3.00;99.90
37340;DHT22;23223;51.006;7.610;2024-03-17T01:06:44;3.10;99.90
37340;DHT22;23223;51.006;7.610;2024-03-17T01:09:09;3.10;99.90
37340;DHT22;23223;51.006;7.610;2024-03-17T01:11:35;3.00;99.90
37340;DHT22;23223;51.006;7.610;2024-03-17T01:14:00;2.90;99.90
37340;DHT22;23223;51.006;7.610;2024-03-17T01:16:26;2.80;99.90
37340;DHT22;23223;51.006;7.610;2024-03-17T01:18:52;2.70;99.90
37340;DHT22;23223;51.006;7.610;2024-03-17T01:21:19;2.60;99.90
37340;DHT22;23223;51.006;7.610;2024-03-17T01:23:44;2.60;99.90
37340;DHT22;23223;51.006;7.610;2024-03-17T01:26:10;2.60;99.90
37340;DHT22;23223;51.006;7.610;2024-03-17T01:28:36;2.50;99.90
37340;DHT22;23223;51.006;7.610;2024-03-17T01:31:06;2.50;99.90
37340;DHT22;23223;51.006;7.610;2024-03-17T01:33:31;2.50;99.90
37340;DHT22;23223;51.006;7.610;2024-03-17T01:35:57;2.40;99.90
37340;DHT22;23223;51.006;7.610;2024-03-17T01:38:23;2.30;99.90
37340;DHT22;23223;51.006;7.610;2024-03-17T01:40:48;2.30;99.90
37340;DHT22;23223;51.006;7.610;2024-03-17T01:43:14;2.30;99.90
37340;DHT22;23223;51.006;7.610;2024-03-17T01:45:39;2.30;99.90
37340;DHT22;23223;51.006;7.610;2024-03-17T01:48:11;2.20;99.90
37340;DHT22;23223;51.006;7.610;2024-03-17T01:50:38;2.20;99.90
37340;DHT22;23223;51.006;7.610;2024-03-17T01:53:05;2.20;99.90
37340;DHT22;23223;51.006;7.610;2024-03-17T01:55:37;2.30;99.90
37340;DHT22;23223;51.006;7.610;2024-03-17T01:58:04;2.30;99.90
37340;DHT22;23223;51.006;7.610;2024-03-17T02:00:33;2.40;99.90
37340;DHT22;23223;51.006;7.610;2024-03-17T02:03:00;2.40;99.90
37340;DHT22;23223;51.006;7.610;2024-03-17T02:05:26;2.30;99.90
37340;DHT22;23223;51.006;7.610;2024-03-17T02:07:52;2.20;99.90
37340;DHT22;23223;51.006;7.610;2024-03-17T02:10:18;2.10;99.90
37340;DHT22;23223;51.006;7.610;2024-03-17T02:12:44;2.00;99.90
37340;DHT22;23223;51.006;7.610;2024-03-17T02:15:09;1.80;99.90
37340;DHT22;23223;51.006;7.610;2024-03-17T02:17:35;1.70;99.90
37340;DHT22;23223;51.006;7.610;2024-03-17T02:20:01;1.70;99.90
37340;DHT22;23223;51.006;7.610;2024-03-17T02:22:27;1.70;99.90
37340;DHT22;23223;51.006;7.610;2024-03-17T02:24:55;1.80;99.90
37340;DHT22;23223;51.006;7.610;2024-03-17T02:27:21;1.80;99.90
37340;DHT22;23223;51.006;7.610;2024-03-17T02:29:47;1.70;99.90
37340;DHT22;23223;51.006;7.610;2024-03-17T02:32:12;1.70;99.90
37340;DHT22;23223;51.006;7.610;2024-03-17T02:34:38;2.00;99.90
37340;DHT22;23223;51.006;7.610;2024-03-17T02:37:04;2.20;99.90
37340;DHT22;23223;51.006;7.610;2024-03-17T02:39:31;2.20;99.90
37340;DHT22;23223;51.006;7.610;2024-03-17T02:42:10;2.10;99.90
37340;DHT22;23223;51.006;7.610;2024-03-17T02:44:37;2.00;99.90
37340;DHT22;23223;51.006;7.610;2024-03-17T02:47:04;1.80;99.90
37340;DHT22;23223;51.006;7.610;2024-03-17T02:49:31;1.70;99.90
37340;DHT22;23223;51.006;7.610;2024-03-17T02:52:08;1.80;99.90
37340;DHT22;23223;51.006;7.610;2024-03-17T02:54:39;2.00;99.90
37340;DHT22;23223;51.006;7.610;2024-03-17T02:57:06;2.00;99.90
37340;DHT22;23223;51.006;7.610;2024-03-17T02:59:32;1.80;99.90
37340;DHT22;23223;51.006;7.610;2024-03-17T03:01:58;1.70;99.90
37340;DHT22;23223;51.006;7.610;2024-03-17T03:04:25;1.70;99.90
37340;DHT22;23223;51.006;7.610;2024-03-17T03:06:50;1.80;99.90
37340;DHT22;23223;51.006;7.610;2024-03-17T03:09:16;1.70;99.90
37340;DHT22;23223;51.006;7.610;2024-03-17T03:11:47;1.60;99.90
37340;DHT22;23223;51.006;7.610;2024-03-17T03:14:13;1.50;99.90
37340;DHT22;23223;51.006;7.610;2024-03-17T03:16:38;1.40;99.90
37340;DHT22;23223;51.006;7.610;2024-03-17T03:19:04;1.30;99.90
37340;DHT22;23223;51.006;7.610;2024-03-17T03:21:31;1.20;99.90
37340;DHT22;23223;51.006;7.610;2024-03-17T03:23:56;1.20;99.90
37340;DHT22;23223;51.006;7.610;2024-03-17T03:26:22;1.20;99.90
37340;DHT22;23223;51.006;7.610;2024-03-17T03:28:49;1.10;99.90
37340;DHT22;23223;51.006;7.610;2024-03-17T03:31:15;1.30;99.90
37340;DHT22;23223;51.006;7.610;2024-03-17T03:33:41;1.50;99.90
37340;DHT22;23223;51.006;7.610;2024-03-17T03:36:09;1.40;99.90
37340;DHT22;23223;51.006;7.610;2024-03-17T03:38:35;1.30;99.90
37340;DHT22;23223;51.006;7.610;2024-03-17T03:41:06;1.20;99.90
37340;DHT22;23223;51.006;7.610;2024-03-17T03:43:32;1.20;99.90
37340;DHT22;23223;51.006;7.610;2024-03-17T03:45:59;1.20;99.90
37340;DHT22;23223;51.006;7.610;2024-03-17T03:48:25;1.20;99.90
37340;DHT22;23223;51.006;7.610;2024-03-17T03:50:51;1.10;99.90
37340;DHT22;23223;51.006;7.610;2024-03-17T03:53:16;1.00;99.90
37340;DHT22;23223;51.006;7.610;2024-03-17T03:55:42;0.90;99.90
37340;DHT22;23223;51.006;7.610;2024-03-17T03:58:07;0.80;99.90
37340;DHT22;23223;51.006;7.610;2024-03-17T04:00:33;0.70;99.90
37340;DHT22;23223;51.006;7.610;2024-03-17T04:02:59;0.60;99.90
37340;DHT22;23223;51.006;7.610;2024-03-17T04:05:27;0.60;99.90
37340;DHT22;23223;51.006;7.610;2024-03-17T04:07:54;0.60;99.90
37340;DHT22;23223;51.006;7.610;2024-03-17T04:10:20;0.60;99.90
37340;DHT22;23223;51.006;7.610;2024-03-17T04:12:46;0.60;99.90
37340;DHT22;23223;51.006;7.610;2024-03-17T04:15:11;0.50;99.90
37340;DHT22;23223;51.006;7.610;2024-03-17T04:17:37;0.40;99.90
37340;DHT22;23223;51.006;7.610;2024-03-17T04:20:04;0.30;99.90
37340;DHT22;23223;51.006;7.610;2024-03-17T04:22:32;0.20;99.90
37340;DHT22;23223;51.006;7.610;2024-03-17T04:24:58;0.20;99.90
37340;DHT22;23223;51.006;7.610;2024-03-17T04:27:24;0.10;99.90
37340;DHT22;23223;51.006;7.610;2024-03-17T04:29:52;0.10;99.90
37340;DHT22;23223;51.006;7.610;2024-03-17T04:32:18;0.00;99.90
37340;DHT22;23223;51.006;7.610;2024-03-17T04:34:43;0.00;99.90
37340;DHT22;23223;51.006;7.610;2024-03-17T04:37:09;0.00;99.90
37340;DHT22;23223;51.006;7.610;2024-03-17T04:39:41;0.00;99.90
37340;DHT22;23223;51.006;7.610;2024-03-17T04:42:11;0.00;99.90
37340;DHT22;23223;51.006;7.610;2024-03-17T04:44:37;-0.10;99.90
37340;DHT22;23223;51.006;7.610;2024-03-17T04:47:03;-0.10;99.90
37340;DHT22;23223;51.006;7.610;2024-03-17T04:49:36;0.00;99.90
37340;DHT22;23223;51.006;7.610;2024-03-17T04:52:01;-0.10;99.90
37340;DHT22;23223;51.006;7.610;2024-03-17T04:54:27;-0.10;99.90
37340;DHT22;23223;51.006;7.610;2024-03-17T04:56:52;-0.10;99.90
37340;DHT22;23223;51.006;7.610;2024-03-17T04:59:18;-0.10;99.90
37340;DHT22;23223;51.006;7.610;2024-03-17T05:01:44;0.00;99.90
37340;DHT22;23223;51.006;7.610;2024-03-17T05:04:09;0.00;99.90
37340;DHT22;23223;51.006;7.610;2024-03-17T05:06:35;0.00;99.90
37340;DHT22;23223;51.006;7.610;2024-03-17T05:09:01;0.00;99.90
37340;DHT22;23223;51.006;7.610;2024-03-17T05:11:26;0.00;99.90
37340;DHT22;23223;51.006;7.610;2024-03-17T05:13:52;0.00;99.90
37340;DHT22;23223;51.006;7.610;2024-03-17T05:16:18;0.00;99.90
37340;DHT22;23223;51.006;7.610;2024-03-17T05:18:43;0.10;99.90
37340;DHT22;23223;51.006;7.610;2024-03-17T05:21:09;0.20;99.90
37340;DHT22;23223;51.006;7.610;2024-03-17T05:23:36;0.20;99.90
37340;DHT22;23223;51.006;7.610;2024-03-17T05:26:02;0.30;99.90
37340;DHT22;23223;51.006;7.610;2024-03-17T05:28:30;0.40;99.90
37340;DHT22;23223;51.006;7.610;2024-03-17T05:30:56;0.70;99.90
37340;DHT22;23223;51.006;7.610;2024-03-17T05:33:23;0.90;99.90
37340;DHT22;23223;51.006;7.610;2024-03-17T05:35:56;0.80;99.90
37340;DHT22;23223;51.006;7.610;2024-03-17T05:38:26;0.70;99.90
37340;DHT22;23223;51.006;7.610;2024-03-17T05:41:03;0.60;99.90
37340;DHT22;23223;51.006;7.610;2024-03-17T05:43:30;0.50;99.90
37340;DHT22;23223;51.006;7.610;2024-03-17T05:46:00;0.40;99.90
37340;DHT22;23223;51.006;7.610;2024-03-17T05:48:27;0.30;99.90
37340;DHT22;23223;51.006;7.610;2024-03-17T05:50:53;0.30;99.90
37340;DHT22;23223;51.006;7.610;2024-03-17T05:53:19;0.20;99.90
37340;DHT22;23223;51.006;7.610;2024-03-17T05:55:45;0.20;99.90
37340;DHT22;23223;51.006;7.610;2024-03-17T05:58:11;0.20;99.90
37340;DHT22;23223;51.006;7.610;2024-03-17T06:00:37;0.20;99.90
37340;DHT22;23223;51.006;7.610;2024-03-17T06:03:04;0.20;99.90
37340;DHT22;23223;51.006;7.610;2024-03-17T06:05:34;0.20;99.90
37340;DHT22;23223;51.006;7.610;2024-03-17T06:08:01;0.20;99.90
37340;DHT22;23223;51.006;7.610;2024-03-17T06:10:29;0.20;99.90
37340;DHT22;23223;51.006;7.610;2024-03-17T06:12:56;0.30;99.90
37340;DHT22;23223;51.006;7.610;2024-03-17T06:15:22;0.50;99.90
37340;DHT22;23223;51.006;7.610;2024-03-17T06:17:49;0.70;99.90
37340;DHT22;23223;51.006;7.610;2024-03-17T06:20:17;0.90;99.90
37340;DHT22;23223;51.006;7.610;2024-03-17T06:22:43;1.20;99.90
37340;DHT22;23223;51.006;7.610;2024-03-17T06:25:08;1.50;99.90
37340;DHT22;23223;51.006;7.610;2024-03-17T06:27:34;2.00;99.90
37340;DHT22;23223;51.006;7.610;2024-03-17T06:30:00;2.40;99.90
37340;DHT22;23223;51.006;7.610;2024-03-17T06:32:29;2.80;99.90
37340;DHT22;23223;51.006;7.610;2024-03-17T06:34:56;3.10;99.90
37340;DHT22;23223;51.006;7.610;2024-03-17T06:37:22;3.60;99.90
37340;DHT22;23223;51.006;7.610;2024-03-17T06:39:48;3.90;99.90
37340;DHT22;23223;51.006;7.610;2024-03-17T06:42:14;4.20;99.90
37340;DHT22;23223;51.006;7.610;2024-03-17T06:44:39;4.60;99.90
37340;DHT22;23223;51.006;7.610;2024-03-17T06:47:05;5.00;99.90
37340;DHT22;23223;51.006;7.610;2024-03-17T06:49:31;5.50;99.90
37340;DHT22;23223;51.006;7.610;2024-03-17T06:51:56;6.00;99.90
37340;DHT22;23223;51.006;7.610;2024-03-17T06:54:22;6.30;99.90
37340;DHT22;23223;51.006;7.610;2024-03-17T06:56:48;6.70;99.90
37340;DHT22;23223;51.006;7.610;2024-03-17T06:59:13;7.00;99.90
37340;DHT22;23223;51.006;7.610;2024-03-17T07:01:39;7.30;99.90
37340;DHT22;23223;51.006;7.610;2024-03-17T07:04:05;7.60;99.90
37340;DHT22;23223;51.006;7.610;2024-03-17T07:06:31;7.90;99.90
37340;DHT22;23223;51.006;7.610;2024-03-17T07:08:56;8.20;99.90
37340;DHT22;23223;51.006;7.610;2024-03-17T07:11:22;8.50;99.90
37340;DHT22;23223;51.006;7.610;2024-03-17T07:13:49;8.80;99.90
37340;DHT22;23223;51.006;7.610;2024-03-17T07:16:18;9.10;99.90
37340;DHT22;23223;51.006;7.610;2024-03-17T07:18:44;9.30;99.90
37340;DHT22;23223;51.006;7.610;2024-03-17T07:21:10;9.70;99.90
37340;DHT22;23223;51.006;7.610;2024-03-17T07:23:36;10.00;99.90
37340;DHT22;23223;51.006;7.610;2024-03-17T07:26:02;10.40;99.90
37340;DHT22;23223;51.006;7.610;2024-03-17T07:28:30;10.70;93.80
37340;DHT22;23223;51.006;7.610;2024-03-17T07:30:58;10.70;95.20
37340;DHT22;23223;51.006;7.610;2024-03-17T07:33:24;10.90;96.40
37340;DHT22;23223;51.006;7.610;2024-03-17T07:35:50;11.10;91.70
37340;DHT22;23223;51.006;7.610;2024-03-17T07:38:16;11.30;88.80
37340;DHT22;23223;51.006;7.610;2024-03-17T07:40:43;11.40;91.60
37340;DHT22;23223;51.006;7.610;2024-03-17T07:43:09;11.60;98.90
37340;DHT22;23223;51.006;7.610;2024-03-17T07:45:34;11.80;92.10
37340;DHT22;23223;51.006;7.610;2024-03-17T07:48:00;12.00;77.60
37340;DHT22;23223;51.006;7.610;2024-03-17T07:50:26;12.40;89.90
37340;DHT22;23223;51.006;7.610;2024-03-17T07:52:52;12.40;84.50
37340;DHT22;23223;51.006;7.610;2024-03-17T07:55:18;12.50;86.00
37340;DHT22;23223;51.006;7.610;2024-03-17T07:57:43;12.40;78.50
37340;DHT22;23223;51.006;7.610;2024-03-17T08:00:09;11.80;92.10
37340;DHT22;23223;51.006;7.610;2024-03-17T08:02:47;11.30;99.90
37340;DHT22;23223;51.006;7.610;2024-03-17T08:05:13;11.00;99.90
37340;DHT22;23223;51.006;7.610;2024-03-17T08:07:39;10.60;99.90
37340;DHT22;23223;51.006;7.610;2024-03-17T08:10:07;10.30;99.90
37340;DHT22;23223;51.006;7.610;2024-03-17T08:12:33;10.60;99.90
37340;DHT22;23223;51.006;7.610;2024-03-17T08:14:59;10.70;99.90
37340;DHT22;23223;51.006;7.610;2024-03-17T08:17:25;10.90;99.90
37340;DHT22;23223;51.006;7.610;2024-03-17T08:19:51;11.50;99.90
37340;DHT22;23223;51.006;7.610;2024-03-17T08:22:17;12.10;99.90
37340;DHT22;23223;51.006;7.610;2024-03-17T08:24:42;13.10;98.70
37340;DHT22;23223;51.006;7.610;2024-03-17T08:27:08;14.00;78.60
37340;DHT22;23223;51.006;7.610;2024-03-17T08:29:34;14.70;69.70
37340;DHT22;23223;51.006;7.610;2024-03-17T08:32:00;15.60;99.90
37340;DHT22;23223;51.006;7.610;2024-03-17T08:34:26;16.40;99.90
37340;DHT22;23223;51.006;7.610;2024-03-17T08:36:51;16.80;9.60
37340;DHT22;23223;51.006;7.610;2024-03-17T08:39:17;17.30;1.00
37340;DHT22;23223;51.006;7.610;2024-03-17T08:41:42;17.30;1.00
37340;DHT22;23223;51.006;7.610;2024-03-17T08:44:09;17.10;1.00
37340;DHT22;23223;51.006;7.610;2024-03-17T08:46:35;16.70;1.00
37340;DHT22;23223;51.006;7.610;2024-03-17T08:49:01;16.10;1.00
37340;DHT22;23223;51.006;7.610;2024-03-17T08:51:26;16.30;1.00
37340;DHT22;23223;51.006;7.610;2024-03-17T08:53:53;15.90;1.00
37340;DHT22;23223;51.006;7.610;2024-03-17T08:56:18;15.30;1.00
37340;DHT22;23223;51.006;7.610;2024-03-17T08:58:46;15.00;14.60
37340;DHT22;23223;51.006;7.610;2024-03-17T09:01:13;15.20;30.70
37340;DHT22;23223;51.006;7.610;2024-03-17T09:03:39;14.90;28.30
37340;DHT22;23223;51.006;7.610;2024-03-17T09:06:16;14.90;22.70
37340;DHT22;23223;51.006;7.610;2024-03-17T09:08:44;15.10;57.20
37340;DHT22;23223;51.006;7.610;2024-03-17T09:11:13;15.90;94.80
37340;DHT22;23223;51.006;7.610;2024-03-17T09:13:39;16.80;31.40
37340;DHT22;23223;51.006;7.610;2024-03-17T09:16:05;17.50;1.00
37340;DHT22;23223;51.006;7.610;2024-03-17T09:18:33;18.10;1.00
37340;DHT22;23223;51.006;7.610;2024-03-17T09:21:03;17.70;1.00
37340;DHT22;23223;51.006;7.610;2024-03-17T09:23:29;17.30;1.00
37340;DHT22;23223;51.006;7.610;2024-03-17T09:26:03;17.00;1.00
37340;DHT22;23223;51.006;7.610;2024-03-17T09:28:29;17.10;1.00
37340;DHT22;23223;51.006;7.610;2024-03-17T09:30:56;16.80;1.00
37340;DHT22;23223;51.006;7.610;2024-03-17T09:33:22;16.60;1.00
37340;DHT22;23223;51.006;7.610;2024-03-17T09:36:05;16.40;1.00
37340;DHT22;23223;51.006;7.610;2024-03-17T09:38:36;16.10;1.00
37340;DHT22;23223;51.006;7.610;2024-03-17T09:41:02;15.80;1.00
37340;DHT22;23223;51.006;7.610;2024-03-17T09:43:30;15.60;30.80
37340;DHT22;23223;51.006;7.610;2024-03-17T09:45:57;15.70;50.10
37340;DHT22;23223;51.006;7.610;2024-03-17T09:48:24;15.50;8.20
37340;DHT22;23223;51.006;7.610;2024-03-17T09:50:54;15.30;13.10
37340;DHT22;23223;51.006;7.610;2024-03-17T09:53:30;15.30;43.60
37340;DHT22;23223;51.006;7.610;2024-03-17T09:55:58;15.50;61.30
37340;DHT22;23223;51.006;7.610;2024-03-17T09:58:25;15.60;29.00
37340;DHT22;23223;51.006;7.610;2024-03-17T10:00:51;15.60;25.50
37340;DHT22;23223;51.006;7.610;2024-03-17T10:03:42;15.30;20.10
37340;DHT22;23223;51.006;7.610;2024-03-17T10:06:14;15.30;65.00
37340;DHT22;23223;51.006;7.610;2024-03-17T10:08:48;15.50;11.20
37340;DHT22;23223;51.006;7.610;2024-03-17T10:11:16;15.80;11.50
37340;DHT22;23223;51.006;7.610;2024-03-17T10:13:45;16.30;14.70
37340;DHT22;23223;51.006;7.610;2024-03-17T10:16:38;15.90;1.00
37340;DHT22;23223;51.006;7.610;2024-03-17T10:19:11;15.60;13.50
37340;DHT22;23223;51.006;7.610;2024-03-17T10:21:46;15.70;68.60
37340;DHT22;23223;51.006;7.610;2024-03-17T10:26:44;15.40;18.50
37340;DHT22;23223;51.006;7.610;2024-03-17T10:29:20;15.40;37.70
37340;DHT22;23223;51.006;7.610;2024-03-17T10:31:57;15.50;12.70
37340;DHT22;23223;51.006;7.610;2024-03-17T10:34:26;15.80;8.20
37340;DHT22;23223;51.006;7.610;2024-03-17T10:37:15;16.20;5.20
37340;DHT22;23223;51.006;7.610;2024-03-17T10:39:43;16.50;1.00
37340;DHT22;23223;51.006;7.610;2024-03-17T10:42:11;17.20;1.00
37340;DHT22;23223;51.006;7.610;2024-03-17T10:44:38;17.30;1.00
37340;DHT22;23223;51.006;7.610;2024-03-17T10:47:05;17.50;1.00
37340;DHT22;23223;51.006;7.610;2024-03-17T10:49:36;16.40;1.00
37340;DHT22;23223;51.006;7.610;2024-03-17T10:52:07;15.80;97.70
37340;DHT22;23223;51.006;7.610;2024-03-17T10:54:34;15.50;21.40
37340;DHT22;23223;51.006;7.610;2024-03-17T10:57:53;15.20;28.20
37340;DHT22;23223;51.006;7.610;2024-03-17T10:59:54;15.20;99.90
37340;DHT22;23223;51.006;7.610;2024-03-17T11:02:25;15.20;44.80
37340;DHT22;23223;51.006;7.610;2024-03-17T11:04:55;14.90;34.80
37340;DHT22;23223;51.006;7.610;2024-03-17T11:07:22;14.40;50.20
37340;DHT22;23223;51.006;7.610;2024-03-17T11:09:51;14.20;99.90
37340;DHT22;23223;51.006;7.610;2024-03-17T11:17:49;14.00;95.70
37340;DHT22;23223;51.006;7.610;2024-03-17T11:20:25;14.10;94.90
37340;DHT22;23223;51.006;7.610;2024-03-17T11:22:54;14.10;78.10
37340;DHT22;23223;51.006;7.610;2024-03-17T11:30:56;14.20;71.20
37340;DHT22;23223;51.006;7.610;2024-03-17T11:39:06;14.80;92.90
37340;DHT22;23223;51.006;7.610;2024-03-17T11:41:44;14.80;51.90
37340;DHT22;23223;51.006;7.610;2024-03-17T11:44:31;14.50;51.70
37340;DHT22;23223;51.006;7.610;2024-03-17T11:47:04;14.40;57.70
37340;DHT22;23223;51.006;7.610;2024-03-17T11:52:16;14.70;70.60
37340;DHT22;23223;51.006;7.610;2024-03-17T11:54:44;14.90;99.90
37340;DHT22;23223;51.006;7.610;2024-03-17T11:57:19;14.90;50.40
37340;DHT22;23223;51.006;7.610;2024-03-17T11:59:48;15.10;47.20
37340;DHT22;23223;51.006;7.610;2024-03-17T12:04:50;14.90;56.30
37340;DHT22;23223;51.006;7.610;2024-03-17T12:07:18;15.10;76.10
37340;DHT22;23223;51.006;7.610;2024-03-17T12:09:47;15.20;51.60
37340;DHT22;23223;51.006;7.610;2024-03-17T12:12:20;15.30;57.20
37340;DHT22;23223;51.006;7.610;2024-03-17T12:14:47;15.50;99.90
37340;DHT22;23223;51.006;7.610;2024-03-17T12:17:14;15.80;47.10
37340;DHT22;23223;51.006;7.610;2024-03-17T12:19:43;16.00;45.40
37340;DHT22;23223;51.006;7.610;2024-03-17T12:22:18;15.90;29.90
37340;DHT22;23223;51.006;7.610;2024-03-17T12:24:51;15.90;41.20
37340;DHT22;23223;51.006;7.610;2024-03-17T12:27:19;16.20;24.20
37340;DHT22;23223;51.006;7.610;2024-03-17T12:29:47;16.30;19.30
37340;DHT22;23223;51.006;7.610;2024-03-17T12:34:44;17.00;1.70
37340;DHT22;23223;51.006;7.610;2024-03-17T12:37:18;17.70;1.00
37340;DHT22;23223;51.006;7.610;2024-03-17T12:39:44;18.10;1.00
37340;DHT22;23223;51.006;7.610;2024-03-17T12:42:14;18.00;1.00
37340;DHT22;23223;51.006;7.610;2024-03-17T12:45:01;18.20;1.00
37340;DHT22;23223;51.006;7.610;2024-03-17T12:47:28;18.50;1.00
37340;DHT22;23223;51.006;7.610;2024-03-17T12:49:55;18.70;1.00
37340;DHT22;23223;51.006;7.610;2024-03-17T12:52:29;19.10;1.00
37340;DHT22;23223;51.006;7.610;2024-03-17T12:55:08;18.80;1.00
37340;DHT22;23223;51.006;7.610;2024-03-17T12:58:05;19.00;1.00
37340;DHT22;23223;51.006;7.610;2024-03-17T13:01:03;18.50;1.00
37340;DHT22;23223;51.006;7.610;2024-03-17T13:03:33;17.90;1.00
37340;DHT22;23223;51.006;7.610;2024-03-17T13:06:00;17.90;1.00
37340;DHT22;23223;51.006;7.610;2024-03-17T13:08:36;17.50;1.00
37340;DHT22;23223;51.006;7.610;2024-03-17T13:11:02;17.70;1.00
37340;DHT22;23223;51.006;7.610;2024-03-17T13:13:31;17.70;1.00
37340;DHT22;23223;51.006;7.610;2024-03-17T13:15:57;17.80;1.00
37340;DHT22;23223;51.006;7.610;2024-03-17T13:18:24;17.90;1.00
37340;DHT22;23223;51.006;7.610;2024-03-17T13:20:49;18.00;1.00
37340;DHT22;23223;51.006;7.610;2024-03-17T13:23:16;17.90;1.00
37340;DHT22;23223;51.006;7.610;2024-03-17T13:25:41;17.90;1.00
37340;DHT22;23223;51.006;7.610;2024-03-17T13:28:09;18.10;1.00
37340;DHT22;23223;51.006;7.610;2024-03-17T13:30:35;18.30;1.00
37340;DHT22;23223;51.006;7.610;2024-03-17T13:33:05;18.30;1.00
37340;DHT22;23223;51.006;7.610;2024-03-17T13:35:35;18.20;1.00
37340;DHT22;23223;51.006;7.610;2024-03-17T13:38:04;18.00;1.00
37340;DHT22;23223;51.006;7.610;2024-03-17T13:40:32;17.70;1.00
37340;DHT22;23223;51.006;7.610;2024-03-17T13:42:58;17.60;1.00
37340;DHT22;23223;51.006;7.610;2024-03-17T13:45:26;17.70;58.40
37340;DHT22;23223;51.006;7.610;2024-03-17T13:47:58;17.40;1.00
37340;DHT22;23223;51.006;7.610;2024-03-17T13:50:24;16.90;1.00
37340;DHT22;23223;51.006;7.610;2024-03-17T13:52:51;16.40;1.00
37340;DHT22;23223;51.006;7.610;2024-03-17T13:55:20;16.20;1.00
37340;DHT22;23223;51.006;7.610;2024-03-17T13:57:50;15.80;11.90
37340;DHT22;23223;51.006;7.610;2024-03-17T14:00:17;15.50;19.30
37340;DHT22;23223;51.006;7.610;2024-03-17T14:02:43;15.20;47.90
37340;DHT22;23223;51.006;7.610;2024-03-17T14:05:13;15.00;32.60
37340;DHT22;23223;51.006;7.610;2024-03-17T14:07:39;14.70;35.90
37340;DHT22;23223;51.006;7.610;2024-03-17T14:10:05;14.70;42.40
37340;DHT22;23223;51.006;7.610;2024-03-17T14:12:31;14.60;99.90
37340;DHT22;23223;51.006;7.610;2024-03-17T14:14:57;14.80;99.90
37340;DHT22;23223;51.006;7.610;2024-03-17T14:17:22;14.90;30.40
37340;DHT22;23223;51.006;7.610;2024-03-17T14:19:48;14.80;36.00
37340;DHT22;23223;51.006;7.610;2024-03-17T14:22:13;14.70;34.20
37340;DHT22;23223;51.006;7.610;2024-03-17T14:24:39;14.70;99.90
37340;DHT22;23223;51.006;7.610;2024-03-17T14:27:06;14.50;49.80
37340;DHT22;23223;51.006;7.610;2024-03-17T14:29:32;14.40;50.50
37340;DHT22;23223;51.006;7.610;2024-03-17T14:31:58;14.20;57.30
37340;DHT22;23223;51.006;7.610;2024-03-17T14:34:23;14.30;99.90
37340;DHT22;23223;51.006;7.610;2024-03-17T14:36:49;14.50;99.90
37340;DHT22;23223;51.006;7.610;2024-03-17T14:39:14;14.50;57.20
37340;DHT22;23223;51.006;7.610;2024-03-17T14:41:40;14.30;43.90
37340;DHT22;23223;51.006;7.610;2024-03-17T14:44:06;14.20;65.60
37340;DHT22;23223;51.006;7.610;2024-03-17T14:46:32;14.10;48.10
37340;DHT22;23223;51.006;7.610;2024-03-17T14:48:58;14.00;52.80
37340;DHT22;23223;51.006;7.610;2024-03-17T14:51:24;14.00;92.80
37340;DHT22;23223;51.006;7.610;2024-03-17T14:53:50;14.00;57.60
37340;DHT22;23223;51.006;7.610;2024-03-17T14:56:18;14.00;57.80
37340;DHT22;23223;51.006;7.610;2024-03-17T14:58:44;13.90;59.20
37340;DHT22;23223;51.006;7.610;2024-03-17T15:01:11;13.90;99.90
37340;DHT22;23223;51.006;7.610;2024-03-17T15:03:37;14.00;63.50
37340;DHT22;23223;51.006;7.610;2024-03-17T15:06:03;13.90;83.80
37340;DHT22;23223;51.006;7.610;2024-03-17T15:08:29;13.90;75.50
37340;DHT22;23223;51.006;7.610;2024-03-17T15:10:56;13.90;99.90
37340;DHT22;23223;51.006;7.610;2024-03-17T15:13:22;14.20;99.90
37340;DHT22;23223;51.006;7.610;2024-03-17T15:15:49;14.60;87.30
37340;DHT22;23223;51.006;7.610;2024-03-17T15:18:15;14.60;79.60
37340;DHT22;23223;51.006;7.610;2024-03-17T15:20:41;14.20;67.50
37340;DHT22;23223;51.006;7.610;2024-03-17T15:23:07;14.20;98.60
37340;DHT22;23223;51.006;7.610;2024-03-17T15:25:33;14.20;99.90
37340;DHT22;23223;51.006;7.610;2024-03-17T15:27:58;14.20;84.00
37340;DHT22;23223;51.006;7.610;2024-03-17T15:30:26;14.10;99.90
37340;DHT22;23223;51.006;7.610;2024-03-17T15:32:55;14.40;99.90
37340;DHT22;23223;51.006;7.610;2024-03-17T15:35:21;14.60;99.90
37340;DHT22;23223;51.006;7.610;2024-03-17T15:37:46;14.80;95.40
37340;DHT22;23223;51.006;7.610;2024-03-17T15:40:13;15.00;84.60
37340;DHT22;23223;51.006;7.610;2024-03-17T15:42:46;14.80;63.60
37340;DHT22;23223;51.006;7.610;2024-03-17T15:45:12;14.70;99.90
37340;DHT22;23223;51.006;7.610;2024-03-17T15:47:38;14.80;84.30
37340;DHT22;23223;51.006;7.610;2024-03-17T15:50:04;14.50;79.70
37340;DHT22;23223;51.006;7.610;2024-03-17T15:52:30;14.70;99.90
37340;DHT22;23223;51.006;7.610;2024-03-17T15:54:58;14.90;99.90
37340;DHT22;23223;51.006;7.610;2024-03-17T15:57:25;15.20;99.90
37340;DHT22;23223;51.006;7.610;2024-03-17T15:59:51;15.20;46.80
37340;DHT22;23223;51.006;7.610;2024-03-17T16:02:19;15.00;41.90
37340;DHT22;23223;51.006;7.610;2024-03-17T16:04:47;14.90;63.10
37340;DHT22;23223;51.006;7.610;2024-03-17T16:07:14;14.70;64.90
37340;DHT22;23223;51.006;7.610;2024-03-17T16:09:39;14.50;99.90